Time;durP1;ratioP1;P1;durP2;ratioP2;P2;SDS_P1;SDS_P2;PMS_P1;PMS_P2;Temp;Humidity;BMP_temperature;BMP_pressure;BME280_temperature;BME280_humidity;BME280_pressure;Samples;Min_cycle;Max_cycle;Signal;HPM_P1;HPM_P2
2022/09/10 00:01:07;;;;;;;11.43;10.43;;;;;;;24.50;51.62;95003.38;6162956;28;103509;-77
2022/09/10 00:04:12;;;;;;;10.70;9.90;;;;;;;24.52;51.66;95000.38;6154005;28;103632;-77
2022/09/10 00:07:17;;;;;;;12.87;11.77;;;;;;;24.47;51.87;94996.78;6148419;28;103101;-76
2022/09/10 00:10:20;;;;;;;12.30;11.30;;;;;;;24.40;52.29;94996.53;6163092;28;103674;-77
2022/09/10 00:13:25;;;;;;;11.70;10.80;;;;;;;24.41;51.89;95000.75;6161952;28;103429;-77
2022/09/10 00:16:28;;;;;;;12.67;10.57;;;;;;;24.52;51.39;95000.38;6153232;28;104070;-75
2022/09/10 00:19:32;;;;;;;11.63;10.63;;;;;;;24.54;51.89;94998.97;6163767;28;103478;-75
2022/09/10 00:22:35;;;;;;;12.37;10.43;;;;;;;24.55;51.53;94997.88;6162443;28;103733;-75
2022/09/10 00:25:39;;;;;;;10.87;9.87;;;;;;;24.51;51.58;94996.94;6154743;28;103827;-76
2022/09/10 00:28:43;;;;;;;10.77;9.97;;;;;;;24.49;51.51;94989.22;6156936;28;103140;-77
2022/09/10 00:31:47;;;;;;;11.00;10.10;;;;;;;24.50;51.54;94987.34;6162228;28;103417;-75
2022/09/10 00:34:50;;;;;;;10.80;10.00;;;;;;;24.54;51.49;94990.16;6163279;28;103091;-76
2022/09/10 00:37:53;;;;;;;11.47;10.47;;;;;;;24.49;51.27;94988.44;6153762;28;103115;-76
2022/09/10 00:41:03;;;;;;;9.60;8.90;;;;;;;24.41;51.79;94995.41;6161929;28;103009;-77
2022/09/10 00:44:46;;;;;;;10.70;9.70;;;;;;;24.41;52.00;94997.31;6161726;28;103206;-75
2022/09/10 00:47:52;;;;;;;11.17;10.17;;;;;;;24.42;51.90;94996.97;6162264;28;104205;-76
2022/09/10 00:50:56;;;;;;;11.50;10.60;;;;;;;24.47;51.89;94994.13;6153858;28;103512;-77
2022/09/10 00:54:01;;;;;;;10.87;10.07;;;;;;;24.32;52.00;94983.94;6161622;28;103421;-76
2022/09/10 00:57:10;;;;;;;10.60;9.70;;;;;;;24.28;51.86;94995.63;6162886;28;104246;-76
2022/09/10 01:00:15;;;;;;;10.87;10.07;;;;;;;24.38;51.60;94998.72;6157357;28;103111;-76
2022/09/10 01:03:19;;;;;;;11.17;10.17;;;;;;;24.43;51.57;94992.41;6159460;28;105938;-76
2022/09/10 01:06:27;;;;;;;11.37;10.37;;;;;;;24.42;51.59;94994.31;6159336;28;103402;-76
2022/09/10 01:09:30;;;;;;;10.67;9.77;;;;;;;24.47;51.17;94980.75;6162600;28;103601;-77
2022/09/10 01:12:57;;;;;;;11.77;10.87;;;;;;;24.50;51.51;94981.97;6154174;28;103056;-77
2022/09/10 01:16:12;;;;;;;11.80;10.90;;;;;;;24.49;51.27;94981.19;6161823;28;103398;-76
2022/09/10 01:19:39;;;;;;;11.40;10.33;;;;;;;24.50;51.08;94973.97;6160610;28;103038;-75
2022/09/10 01:23:00;;;;;;;11.03;10.13;;;;;;;24.54;51.06;94987.50;6157856;28;103499;-75
2022/09/10 01:26:15;;;;;;;11.43;10.53;;;;;;;24.54;51.34;94974.13;6161006;28;105405;-76
2022/09/10 01:29:24;;;;;;;10.63;9.83;;;;;;;24.54;51.17;94982.16;6145189;28;103564;-73
2022/09/10 01:32:34;;;;;;;11.47;10.33;;;;;;;24.54;51.27;94974.13;6163542;28;103255;-73
2022/09/10 01:35:43;;;;;;;10.37;9.47;;;;;;;24.53;51.50;94970.66;6153336;28;103545;-73
2022/09/10 01:38:48;;;;;;;11.13;10.13;;;;;;;24.52;51.19;94960.25;6163078;28;103347;-75
2022/09/10 01:41:54;;;;;;;10.70;9.90;;;;;;;24.49;51.43;94967.81;6162848;28;105364;-73
2022/09/10 01:44:59;;;;;;;12.33;11.17;;;;;;;24.45;51.67;94961.56;6162264;28;103117;-72
2022/09/10 01:48:18;;;;;;;13.20;12.10;;;;;;;24.38;51.76;94969.31;6145144;28;103505;-75
2022/09/10 01:51:28;;;;;;;13.50;11.10;;;;;;;24.38;51.72;94963.19;6161606;28;103465;-73
2022/09/10 01:54:46;;;;;;;14.50;13.47;;;;;;;24.29;52.01;94965.09;6162646;28;103702;-76
2022/09/10 01:57:58;;;;;;;11.77;10.70;;;;;;;24.17;51.97;94973.78;6154289;28;106155;-76
2022/09/10 02:01:10;;;;;;;12.70;11.80;;;;;;;24.26;51.90;94974.53;6161402;28;105878;-76
2022/09/10 02:04:16;;;;;;;12.73;11.63;;;;;;;24.23;52.17;94975.19;6160509;28;103364;-77
2022/09/10 02:07:22;;;;;;;12.50;11.43;;;;;;;24.31;51.83;94984.28;6161308;28;103155;-78
2022/09/10 02:10:26;;;;;;;11.50;10.57;;;;;;;24.28;51.55;94979.56;6142385;28;103050;-79
2022/09/10 02:13:29;;;;;;;13.33;11.63;;;;;;;24.41;51.37;94982.03;6161217;28;103490;-79
2022/09/10 02:16:37;;;;;;;13.07;11.80;;;;;;;24.47;51.44;94990.66;6162861;28;103751;-77
2022/09/10 02:19:41;;;;;;;11.70;10.70;;;;;;;24.50;51.22;94984.66;6155861;28;104053;-79
2022/09/10 02:22:49;;;;;;;11.73;10.63;;;;;;;24.49;51.43;94985.75;6158859;28;103165;-78
2022/09/10 02:25:53;;;;;;;11.30;10.10;;;;;;;24.43;51.83;94989.75;6152231;28;103420;-78
2022/09/10 02:28:56;;;;;;;12.20;11.17;;;;;;;24.42;51.94;94983.59;6163067;28;102896;-78
2022/09/10 02:32:00;;;;;;;11.07;10.00;;;;;;;24.47;51.52;94977.28;6151227;28;103388;-78
2022/09/10 02:35:04;;;;;;;11.27;10.40;;;;;;;24.41;51.37;94974.00;6160964;28;103496;-78
2022/09/10 02:38:07;;;;;;;10.77;9.97;;;;;;;24.38;51.67;94968.53;6160604;28;103439;-78
2022/09/10 02:41:10;;;;;;;10.67;9.77;;;;;;;24.44;51.44;94973.38;6161304;28;103357;-78
2022/09/10 02:44:13;;;;;;;10.83;10.03;;;;;;;24.50;51.04;94969.38;6151723;28;103202;-78
2022/09/10 02:47:17;;;;;;;11.00;10.10;;;;;;;24.47;51.54;94983.41;6161797;28;104481;-78
2022/09/10 02:50:23;;;;;;;10.70;9.90;;;;;;;24.45;51.67;94982.16;6160340;28;103202;-78
2022/09/10 02:53:26;;;;;;;10.67;9.37;;;;;;;24.47;51.62;94977.28;6157904;28;103456;-78
2022/09/10 02:56:29;;;;;;;11.10;9.20;;;;;;;24.47;51.53;94979.94;6159894;28;103263;-77
2022/09/10 02:59:32;;;;;;;10.33;9.40;;;;;;;24.47;51.52;94991.44;6164742;28;103471;-77
2022/09/10 03:02:37;;;;;;;10.40;9.50;;;;;;;24.46;51.46;94981.84;6165793;28;103042;-77
2022/09/10 03:05:40;;;;;;;11.03;10.13;;;;;;;24.46;51.63;94984.53;6156798;28;103265;-78
2022/09/10 03:08:43;;;;;;;11.27;9.97;;;;;;;24.46;51.39;94987.19;6166476;28;105353;-77
2022/09/10 03:11:46;;;;;;;11.93;10.73;;;;;;;24.48;51.69;94984.97;6165488;28;103519;-77
2022/09/10 03:14:49;;;;;;;12.40;11.30;;;;;;;24.45;51.62;94982.16;6164347;28;103095;-78
2022/09/10 03:17:54;;;;;;;13.17;12.07;;;;;;;24.48;51.45;94994.91;6155078;28;103783;-78
2022/09/10 03:21:08;;;;;;;11.87;10.77;;;;;;;24.46;51.37;94981.84;6162850;28;103576;-78
2022/09/10 03:24:11;;;;;;;12.30;11.27;;;;;;;24.46;51.23;94989.88;6164051;28;103071;-77
2022/09/10 03:27:17;;;;;;;12.20;10.90;;;;;;;24.47;51.52;94987.97;6160156;28;103051;-77
2022/09/10 03:30:20;;;;;;;11.70;10.70;;;;;;;24.44;51.92;94993.97;6158664;28;104070;-77
2022/09/10 03:33:25;;;;;;;11.87;10.83;;;;;;;24.45;51.18;94990.97;6163544;28;103173;-77
2022/09/10 03:36:30;;;;;;;12.00;11.00;;;;;;;24.38;51.81;94977.34;6163437;28;103542;-77
2022/09/10 03:39:33;;;;;;;12.37;11.30;;;;;;;24.23;52.45;94975.19;6153963;28;103542;-77
2022/09/10 03:42:36;;;;;;;13.23;12.03;;;;;;;24.11;53.00;94975.06;6163643;28;103417;-77
2022/09/10 03:45:39;;;;;;;11.57;10.67;;;;;;;24.21;52.37;94972.06;6163598;28;103552;-78
2022/09/10 03:48:44;;;;;;;12.00;11.10;;;;;;;24.32;51.90;94983.16;6162533;28;103399;-77
2022/09/10 03:51:47;;;;;;;14.30;12.80;;;;;;;24.17;52.92;94981.81;6153248;28;105339;-77
2022/09/10 03:54:50;;;;;;;13.27;12.07;;;;;;;24.12;52.78;94974.75;6163757;28;103244;-78
2022/09/10 03:57:53;;;;;;;12.30;11.00;;;;;;;24.14;52.57;94971.75;6162717;28;103521;-77
2022/09/10 04:00:56;;;;;;;12.43;11.43;;;;;;;24.12;52.69;94957.94;6163170;28;103208;-77
2022/09/10 04:04:01;;;;;;;16.83;15.40;;;;;;;24.01;53.00;94946.00;6154576;28;103377;-77
2022/09/10 04:07:05;;;;;;;18.47;16.70;;;;;;;23.98;53.08;94941.28;6160466;28;104192;-77
2022/09/10 04:10:09;;;;;;;20.03;18.23;;;;;;;24.01;52.26;94957.47;6164400;28;102929;-77
2022/09/10 04:13:13;;;;;;;23.77;21.77;;;;;;;24.13;52.28;94970.19;6155931;28;104386;-77
2022/09/10 04:16:17;;;;;;;20.07;18.23;;;;;;;24.21;52.13;94969.38;6162910;28;103258;-77
2022/09/10 04:19:21;;;;;;;18.50;16.90;;;;;;;24.17;52.17;94957.75;6164336;28;103133;-77
2022/09/10 04:22:27;;;;;;;43.23;39.40;;;;;;;24.16;52.46;94973.00;6164650;28;103477;-77
2022/09/10 04:25:30;;;;;;;26.20;24.00;;;;;;;24.00;53.18;94977.31;6157586;28;103332;-76
2022/09/10 04:28:33;;;;;;;17.80;16.27;;;;;;;24.04;52.96;94966.78;6164060;28;103243;-78
2022/09/10 04:31:37;;;;;;;16.53;15.23;;;;;;;24.00;53.34;94969.28;6162987;28;103201;-77
2022/09/10 04:34:43;;;;;;;15.30;13.73;;;;;;;24.10;52.57;94992.22;6163018;28;103610;-75
2022/09/10 04:37:46;;;;;;;14.23;13.00;;;;;;;24.16;51.94;94996.28;6154571;28;103606;-77
2022/09/10 04:40:49;;;;;;;14.23;13.03;;;;;;;24.23;52.29;94998.47;6162735;28;103028;-78
2022/09/10 04:43:52;;;;;;;14.20;13.00;;;;;;;24.28;52.13;95003.63;6162897;28;103360;-79
2022/09/10 04:46:56;;;;;;;15.50;14.00;;;;;;;24.28;51.96;94985.69;6160217;28;103761;-77
2022/09/10 04:50:00;;;;;;;15.23;13.83;;;;;;;24.27;52.37;94981.47;6157599;28;103018;-77
2022/09/10 04:53:03;;;;;;;26.57;24.17;;;;;;;24.30;52.17;94978.16;6160775;28;103248;-78
2022/09/10 04:56:07;;;;;;;22.43;20.20;;;;;;;24.23;52.35;94974.41;6163241;28;105880;-78
2022/09/10 04:59:10;;;;;;;15.97;14.67;;;;;;;24.28;52.37;94969.66;6152618;28;103736;-78
2022/09/10 05:02:13;;;;;;;16.17;14.60;;;;;;;24.28;52.40;94966.97;6163152;28;104141;-80
2022/09/10 05:05:18;;;;;;;17.87;15.40;;;;;;;24.13;53.45;94968.31;6164236;28;103025;-81
2022/09/10 05:08:21;;;;;;;14.37;13.13;;;;;;;24.12;53.00;94960.59;6165453;28;102695;-78
2022/09/10 05:11:24;;;;;;;15.63;12.70;;;;;;;24.06;53.52;94968.03;6156610;28;102996;-78
2022/09/10 05:14:28;;;;;;;13.30;12.00;;;;;;;24.14;52.57;94985.91;6157888;28;103072;-77
2022/09/10 05:17:32;;;;;;;13.73;12.63;;;;;;;24.21;52.83;94974.72;6162764;28;102723;-76
2022/09/10 05:20:36;;;;;;;13.00;11.77;;;;;;;24.13;53.12;94972.88;6160994;28;103881;-77
2022/09/10 05:23:40;;;;;;;13.13;12.00;;;;;;;24.07;52.94;94971.47;6166321;28;103016;-78
2022/09/10 05:26:45;;;;;;;12.53;11.47;;;;;;;24.23;52.66;94972.53;6174687;28;103575;-81
2022/09/10 05:29:48;;;;;;;12.57;11.57;;;;;;;24.22;52.91;94973.63;6172917;28;103922;-79
2022/09/10 05:32:52;;;;;;;13.33;12.13;;;;;;;24.31;52.53;94994.97;6149529;28;103200;-77
2022/09/10 05:35:56;;;;;;;12.97;12.00;;;;;;;24.24;52.70;94995.47;6145093;28;103010;-79
2022/09/10 05:39:01;;;;;;;13.23;12.03;;;;;;;24.31;52.88;95009.13;6165922;28;103397;-78
2022/09/10 05:42:06;;;;;;;12.93;11.73;;;;;;;24.35;53.31;95001.25;6166241;28;103395;-77
2022/09/10 05:45:10;;;;;;;12.83;11.73;;;;;;;24.38;52.32;94988.03;6158488;28;103354;-77
2022/09/10 05:48:13;;;;;;;13.73;11.50;;;;;;;24.35;52.98;94977.16;6164046;28;103263;-77
2022/09/10 05:51:17;;;;;;;12.50;11.33;;;;;;;24.39;52.69;94984.25;6164391;28;103542;-78
2022/09/10 05:54:20;;;;;;;16.33;14.67;;;;;;;24.33;53.05;94988.19;6163408;28;103306;-78
2022/09/10 05:57:24;;;;;;;24.13;21.80;;;;;;;24.13;53.88;94999.59;6157511;28;104549;-78
2022/09/10 06:00:27;;;;;;;17.27;15.93;;;;;;;24.11;53.94;94999.13;6164161;28;103375;-80
2022/09/10 06:03:30;;;;;;;13.90;12.40;;;;;;;24.00;53.69;94988.00;6163537;28;103456;-78
2022/09/10 06:06:34;;;;;;;15.43;11.83;;;;;;;23.95;54.05;94985.47;6159390;28;103077;-81
2022/09/10 06:09:37;;;;;;;20.30;12.87;;;;;;;23.93;53.94;94987.69;6159057;28;104815;-81
2022/09/10 06:12:45;;;;;;;15.77;12.03;;;;;;;23.92;54.03;94991.47;6163299;28;104115;-80
2022/09/10 06:15:48;;;;;;;14.87;13.40;;;;;;;23.95;54.04;94990.81;6164201;28;105085;-82
2022/09/10 06:18:53;;;;;;;12.27;11.27;;;;;;;23.96;53.46;94979.03;6156403;28;103487;-81
2022/09/10 06:21:57;;;;;;;14.10;12.80;;;;;;;24.02;53.31;94982.31;6163208;28;106029;-81
2022/09/10 06:25:01;;;;;;;13.97;12.57;;;;;;;24.15;52.93;94984.03;6161450;28;103065;-80
2022/09/10 06:28:04;;;;;;;11.53;10.40;;;;;;;24.22;53.07;94984.31;6164740;28;103538;-78
2022/09/10 06:31:10;;;;;;;10.80;9.80;;;;;;;24.22;53.05;94978.97;6160834;28;103912;-78
2022/09/10 06:34:14;;;;;;;12.10;10.50;;;;;;;24.34;52.54;94980.94;6167009;28;103050;-77
2022/09/10 06:37:19;;;;;;;13.30;11.90;;;;;;;24.35;52.58;94988.66;6167065;28;103637;-78
2022/09/10 06:40:22;;;;;;;15.60;14.13;;;;;;;24.40;52.67;94993.06;6163092;28;104444;-80
2022/09/10 06:43:26;;;;;;;13.17;11.83;;;;;;;24.43;52.13;94993.19;6162789;28;106096;-79
2022/09/10 06:46:29;;;;;;;15.63;14.37;;;;;;;24.47;51.80;95006.72;6167190;28;104183;-79
2022/09/10 06:49:52;;;;;;;15.70;13.50;;;;;;;24.48;52.02;94990.34;6166687;28;102758;-80
2022/09/10 06:52:57;;;;;;;14.77;13.47;;;;;;;24.38;52.67;94990.72;6158223;28;103415;-77
2022/09/10 06:56:01;;;;;;;15.40;13.97;;;;;;;24.37;53.00;94989.16;6166345;28;105540;-78
2022/09/10 06:59:04;;;;;;;16.03;13.27;;;;;;;24.40;52.82;94995.72;6166500;28;103237;-77
2022/09/10 07:02:08;;;;;;;14.20;13.10;;;;;;;24.41;53.09;94992.72;6166817;28;106401;-77
2022/09/10 07:05:12;;;;;;;14.17;12.90;;;;;;;24.47;52.63;94978.06;6158666;28;106564;-78
2022/09/10 07:08:19;;;;;;;13.67;12.50;;;;;;;24.47;52.80;94985.31;6166748;28;102804;-78
2022/09/10 07:11:23;;;;;;;14.53;13.07;;;;;;;24.36;52.59;94982.22;6166153;28;102838;-77
2022/09/10 07:14:27;;;;;;;13.57;12.43;;;;;;;24.48;52.66;94987.66;6162450;28;103433;-77
2022/09/10 07:17:30;;;;;;;15.87;12.67;;;;;;;24.56;52.43;94977.25;6161923;28;102840;-79
2022/09/10 07:20:34;;;;;;;13.47;12.17;;;;;;;24.68;52.27;94986.16;6166210;28;104616;-79
2022/09/10 07:23:39;;;;;;;14.27;12.83;;;;;;;24.75;51.96;94986.44;6166414;28;107449;-78
2022/09/10 07:26:42;;;;;;;12.37;11.27;;;;;;;24.84;52.64;94982.94;6156190;28;103621;-80
2022/09/10 07:29:46;;;;;;;13.20;12.00;;;;;;;24.95;51.97;94971.53;6166544;28;103217;-78
2022/09/10 07:32:49;;;;;;;12.30;11.20;;;;;;;25.00;51.41;94960.59;6166105;28;102804;-76
2022/09/10 07:35:52;;;;;;;11.90;10.83;;;;;;;25.16;51.30;94973.41;6166471;28;106921;-79
2022/09/10 07:39:00;;;;;;;13.40;12.13;;;;;;;25.17;51.35;94985.69;6158745;28;103823;-79
2022/09/10 07:42:04;;;;;;;13.40;12.10;;;;;;;25.17;50.91;94985.69;6165168;28;103467;-78
2022/09/10 07:45:12;;;;;;;12.53;11.40;;;;;;;25.26;50.86;94981.06;6166485;28;105502;-77
2022/09/10 07:48:15;;;;;;;12.23;11.13;;;;;;;25.34;51.03;94977.53;6163041;28;103552;-77
2022/09/10 07:51:19;;;;;;;13.30;11.87;;;;;;;25.38;50.93;94978.50;6165238;28;103113;-79
2022/09/10 07:54:24;;;;;;;13.77;11.33;;;;;;;25.41;51.32;94985.88;6165479;28;103347;-78
2022/09/10 07:57:27;;;;;;;14.37;12.87;;;;;;;25.41;51.26;94980.50;6164673;28;103098;-78
2022/09/10 08:00:30;;;;;;;14.03;11.10;;;;;;;25.41;51.32;94982.41;6151234;28;103573;-77
2022/09/10 08:03:33;;;;;;;14.10;11.63;;;;;;;25.52;50.72;94976.28;6147951;28;104373;-77
2022/09/10 08:06:36;;;;;;;13.40;12.10;;;;;;;25.56;50.47;94974.53;6161134;28;107500;-77
2022/09/10 08:09:42;;;;;;;13.37;11.80;;;;;;;25.55;50.31;94975.66;6157967;28;103101;-79
2022/09/10 08:12:45;;;;;;;11.73;10.63;;;;;;;25.63;49.81;94972.09;6142412;28;103167;-78
2022/09/10 08:15:49;;;;;;;14.93;13.67;;;;;;;25.65;50.21;94975.22;6159925;28;103188;-78
2022/09/10 08:18:52;;;;;;;17.00;12.47;;;;;;;25.62;50.25;94969.75;6137047;28;103561;-78
2022/09/10 08:21:55;;;;;;;16.77;13.00;;;;;;;25.57;50.47;94978.78;6158732;28;105917;-77
2022/09/10 08:25:00;;;;;;;15.80;14.20;;;;;;;25.55;50.50;94970.28;6149743;28;104915;-77
2022/09/10 08:28:03;;;;;;;14.50;13.20;;;;;;;25.57;50.45;94972.66;6158938;28;107032;-77
2022/09/10 08:31:08;;;;;;;15.40;13.90;;;;;;;25.51;50.29;94974.72;6155929;28;103364;-76
2022/09/10 08:34:12;;;;;;;15.37;13.07;;;;;;;25.52;50.43;94973.59;6155722;28;106506;-79
2022/09/10 08:37:16;;;;;;;13.53;11.97;;;;;;;25.59;50.02;94960.47;6154990;28;103740;-79
2022/09/10 08:40:22;;;;;;;13.10;11.70;;;;;;;25.68;50.00;94960.38;6156074;28;103602;-78
2022/09/10 08:43:33;;;;;;;12.80;11.60;;;;;;;25.74;49.81;94955.63;6159019;28;104828;-77
2022/09/10 08:46:45;;;;;;;14.50;13.20;;;;;;;25.65;50.23;94948.44;6149765;28;103468;-77
2022/09/10 08:49:51;;;;;;;15.87;12.00;;;;;;;25.57;50.10;94948.53;6156534;28;103155;-79
2022/09/10 08:52:59;;;;;;;13.47;12.33;;;;;;;25.57;50.16;94949.31;6156273;28;103345;-78
2022/09/10 08:56:14;;;;;;;12.77;11.50;;;;;;;25.58;50.04;94947.41;6157166;28;104107;-77
2022/09/10 08:59:24;;;;;;;11.93;10.90;;;;;;;25.53;50.29;94953.75;6147638;28;104379;-79
2022/09/10 09:02:38;;;;;;;12.67;11.37;;;;;;;25.53;50.44;94951.06;6158038;28;104609;-77
2022/09/10 09:05:55;;;;;;;15.13;12.23;;;;;;;25.53;49.98;94948.38;6158338;28;103330;-79
2022/09/10 09:09:00;;;;;;;13.30;12.00;;;;;;;25.52;50.73;94943.34;6147168;28;103299;-77
2022/09/10 09:12:15;;;;;;;13.87;12.20;;;;;;;25.47;50.39;94949.72;6148263;28;103218;-80
2022/09/10 09:15:25;;;;;;;12.83;11.60;;;;;;;25.44;50.35;94941.56;6156910;28;103753;-77
2022/09/10 09:18:37;;;;;;;12.33;11.30;;;;;;;25.48;50.23;94942.44;6158893;28;103062;-78
2022/09/10 09:21:50;;;;;;;14.97;11.70;;;;;;;25.50;50.72;94940.22;6146976;28;103764;-77
2022/09/10 09:24:57;;;;;;;13.13;12.00;;;;;;;25.49;50.91;94931.41;6158316;28;103637;-77
2022/09/10 09:28:12;;;;;;;15.47;13.97;;;;;;;25.48;50.91;94929.06;6159001;28;103709;-76
2022/09/10 09:31:19;;;;;;;20.43;13.27;;;;;;;25.53;51.29;94921.59;6145696;28;104023;-76
2022/09/10 09:34:31;;;;;;;14.20;12.07;;;;;;;25.58;51.32;94924.06;6155283;28;103676;-77
2022/09/10 09:37:37;;;;;;;19.27;13.70;;;;;;;25.53;51.24;94916.22;6155733;28;103253;-76
2022/09/10 09:40:46;;;;;;;15.43;12.33;;;;;;;25.58;51.90;94905.31;6153557;28;103198;-77
2022/09/10 09:43:55;;;;;;;14.30;12.10;;;;;;;25.57;52.09;94902.97;6148014;28;103187;-76
2022/09/10 09:46:59;;;;;;;13.07;11.87;;;;;;;25.53;52.24;94897.47;6154952;28;103491;-78
2022/09/10 09:50:02;;;;;;;14.00;11.87;;;;;;;25.52;52.43;94889.75;6154442;28;103846;-77
2022/09/10 09:53:05;;;;;;;20.80;18.80;;;;;;;25.57;53.16;94881.53;6156568;28;104006;-76
2022/09/10 09:56:17;;;;;;;24.40;21.93;;;;;;;25.53;52.68;94881.38;6151623;28;103591;-78
2022/09/10 09:59:27;;;;;;;21.63;19.63;;;;;;;25.55;53.28;94873.03;6151839;28;103498;-77
2022/09/10 10:02:30;;;;;;;18.77;16.90;;;;;;;25.53;53.61;94870.66;6157237;28;103672;-76
2022/09/10 10:05:34;;;;;;;17.50;15.90;;;;;;;25.52;53.63;94865.66;6147631;28;103373;-76
2022/09/10 10:08:40;;;;;;;18.40;14.67;;;;;;;25.52;52.91;94868.31;6154822;28;103202;-76
2022/09/10 10:11:50;;;;;;;15.90;14.03;;;;;;;25.48;52.20;94862.06;6150917;28;104046;-76
2022/09/10 10:14:54;;;;;;;14.70;12.70;;;;;;;25.46;51.62;94859.72;6154415;28;103553;-77
2022/09/10 10:17:58;;;;;;;14.53;12.67;;;;;;;25.61;51.14;94855.63;6145536;28;103530;-76
2022/09/10 10:21:17;;;;;;;13.67;12.27;;;;;;;25.62;51.53;94835.75;6148164;28;104398;-78
2022/09/10 10:24:30;;;;;;;14.87;12.60;;;;;;;25.66;51.21;94831.28;6157158;28;103807;-77
2022/09/10 10:27:36;;;;;;;18.53;13.40;;;;;;;25.72;51.48;94824.59;6152608;28;104278;-77
2022/09/10 10:30:41;;;;;;;15.73;12.60;;;;;;;25.73;50.79;94809.31;6151143;28;103517;-77
2022/09/10 10:33:52;;;;;;;14.13;12.70;;;;;;;25.72;50.65;94810.41;6156390;28;102755;-78
2022/09/10 10:37:07;;;;;;;15.10;13.70;;;;;;;25.65;51.60;94817.09;6157074;28;103398;-77
2022/09/10 10:40:18;;;;;;;18.13;14.00;;;;;;;25.64;51.70;94817.44;6143209;28;103256;-77
2022/09/10 10:43:32;;;;;;;16.57;14.53;;;;;;;25.64;51.42;94812.84;6156990;28;104187;-77
2022/09/10 10:46:47;;;;;;;15.73;14.33;;;;;;;25.62;51.27;94811.63;6156505;28;103199;-77
2022/09/10 10:50:02;;;;;;;16.23;13.10;;;;;;;25.64;51.57;94809.41;6147059;28;104995;-76
2022/09/10 10:53:25;;;;;;;15.20;13.60;;;;;;;25.69;51.03;94809.16;6149895;28;103245;-78
2022/09/10 10:56:36;;;;;;;15.80;14.30;;;;;;;25.67;50.79;94796.09;6156691;28;103556;-77
2022/09/10 10:59:51;;;;;;;14.67;13.37;;;;;;;25.69;50.71;94796.53;6152105;28;103007;-78
2022/09/10 11:03:06;;;;;;;14.40;12.90;;;;;;;25.71;50.86;94790.06;6144421;28;103145;-78
2022/09/10 11:06:13;;;;;;;14.47;13.17;;;;;;;25.69;50.79;94782.38;6156831;28;103323;-79
2022/09/10 11:09:24;;;;;;;14.53;13.13;;;;;;;25.69;50.65;94775.09;6152811;28;104258;-76
2022/09/10 11:12:32;;;;;;;15.37;14.00;;;;;;;25.71;51.06;94768.63;6154654;28;105999;-76
2022/09/10 11:15:42;;;;;;;15.50;13.97;;;;;;;25.75;50.68;94772.22;6154625;28;104021;-77
2022/09/10 11:18:53;;;;;;;14.17;12.87;;;;;;;25.95;50.35;94774.78;6155722;28;103058;-77
2022/09/10 11:22:02;;;;;;;12.60;11.53;;;;;;;26.02;50.15;94768.09;6158414;28;103836;-77
2022/09/10 11:25:16;;;;;;;14.53;13.27;;;;;;;25.98;50.52;94770.63;6147341;28;103800;-77
2022/09/10 11:28:26;;;;;;;13.80;12.43;;;;;;;25.89;50.60;94780.72;6162143;28;103844;-78
2022/09/10 11:31:32;;;;;;;13.60;12.30;;;;;;;25.86;51.01;94808.16;6154709;28;102811;-78
2022/09/10 11:34:54;;;;;;;14.10;12.63;;;;;;;25.87;50.50;94841.91;6163447;28;103337;-81
2022/09/10 11:38:06;;;;;;;20.67;11.67;;;;;;;25.77;50.31;94848.50;6159227;28;103284;-82
2022/09/10 11:41:18;;;;;;;18.87;8.73;;;;;;;25.60;50.63;94852.16;6143829;28;103405;-78
2022/09/10 11:44:36;;;;;;;11.73;7.10;;;;;;;25.45;49.18;94827.91;6166205;28;103289;-79
2022/09/10 11:47:44;;;;;;;9.80;6.70;;;;;;;25.38;49.08;94813.19;6160573;28;103633;-80
2022/09/10 11:50:54;;;;;;;8.67;6.70;;;;;;;25.55;48.61;94809.50;6155227;28;104242;-79
2022/09/10 11:53:58;;;;;;;12.80;7.30;;;;;;;25.71;48.46;94823.03;6155808;28;103158;-79
2022/09/10 11:57:06;;;;;;;7.10;6.47;;;;;;;25.79;48.62;94813.31;6166912;28;103094;-78
2022/09/10 12:00:14;;;;;;;7.37;6.60;;;;;;;25.80;48.95;94814.88;6159724;28;103178;-79
2022/09/10 12:03:40;;;;;;;6.67;6.07;;;;;;;25.78;49.03;94820.56;6167494;28;103081;-81
2022/09/10 12:06:57;;;;;;;7.57;6.17;;;;;;;25.80;48.98;94836.31;6167797;28;103351;-80
2022/09/10 12:10:12;;;;;;;9.83;6.60;;;;;;;25.80;49.26;94842.47;6160696;28;106253;-78
2022/09/10 12:13:16;;;;;;;13.40;6.70;;;;;;;25.78;49.40;94860.78;6167974;28;103544;-79
2022/09/10 12:16:30;;;;;;;6.20;5.70;;;;;;;25.79;49.78;94865.03;6171282;28;103688;-78
2022/09/10 12:19:38;;;;;;;6.90;6.20;;;;;;;25.75;49.26;94844.59;6129911;28;102878;-79
2022/09/10 12:22:44;;;;;;;7.10;6.50;;;;;;;25.72;49.97;94834.53;6152894;28;104553;-81
2022/09/10 12:25:57;;;;;;;8.20;6.33;;;;;;;25.72;50.47;94829.19;6165419;28;103018;-79
2022/09/10 12:29:05;;;;;;;11.73;6.60;;;;;;;25.73;50.62;94828.06;6165856;28;103774;-78
2022/09/10 12:32:31;;;;;;;10.03;6.67;;;;;;;25.75;51.42;94823.16;6156548;28;104203;-81
2022/09/10 12:35:44;;;;;;;7.37;6.60;;;;;;;25.77;51.49;94819.00;6167500;28;103106;-78
2022/09/10 12:38:55;;;;;;;7.50;6.90;;;;;;;25.75;51.80;94805.16;6160578;28;103752;-77
2022/09/10 12:42:01;;;;;;;7.37;6.63;;;;;;;25.76;52.46;94795.22;6146067;28;104361;-77
2022/09/10 12:45:04;;;;;;;8.33;7.20;;;;;;;25.73;52.59;94787.84;6156491;28;104475;-80
2022/09/10 12:48:13;;;;;;;8.00;7.03;;;;;;;25.69;52.75;94777.78;6166780;28;103026;-77
2022/09/10 12:51:30;;;;;;;8.10;7.00;;;;;;;25.69;53.29;94775.09;6165738;28;105999;-78
2022/09/10 12:54:50;;;;;;;8.20;7.50;;;;;;;25.69;53.36;94780.47;6159529;28;103482;-78
2022/09/10 12:58:02;;;;;;;10.43;7.67;;;;;;;25.71;53.69;94774.78;6162444;28;102852;-79
2022/09/10 13:01:15;;;;;;;8.50;7.60;;;;;;;25.73;53.69;94766.41;6160931;28;103080;-78
2022/09/10 13:04:27;;;;;;;10.20;7.63;;;;;;;25.72;53.52;94767.53;6162672;28;104338;-78
2022/09/10 13:07:40;;;;;;;7.30;6.63;;;;;;;25.72;54.02;94773.69;6147544;28;103700;-78
2022/09/10 13:10:49;;;;;;;9.07;8.17;;;;;;;25.73;53.92;94775.25;6164130;28;104402;-78
2022/09/10 13:13:56;;;;;;;10.47;8.33;;;;;;;25.80;53.96;94777.34;6165153;28;103245;-77
2022/09/10 13:17:01;;;;;;;8.73;7.90;;;;;;;25.78;54.46;94766.97;6164961;28;103250;-78
2022/09/10 13:20:14;;;;;;;12.47;10.43;;;;;;;25.74;54.76;94767.97;6152647;28;105417;-77
2022/09/10 13:23:22;;;;;;;16.23;10.97;;;;;;;25.61;54.53;94772.56;6153973;28;103652;-78
2022/09/10 13:26:51;;;;;;;11.07;9.60;;;;;;;25.64;54.79;94767.28;6164624;28;103717;-79
2022/09/10 13:30:12;;;;;;;22.57;10.10;;;;;;;25.67;54.62;94777.34;6157096;28;103064;-80
2022/09/10 13:33:17;;;;;;;17.53;9.97;;;;;;;25.72;55.49;94764.84;6165224;28;104592;-80
2022/09/10 13:36:33;;;;;;;12.20;11.00;;;;;;;25.74;54.99;94750.00;6162989;28;103073;-78
2022/09/10 13:40:14;;;;;;;13.30;10.90;;;;;;;26.07;54.56;94752.56;6163970;28;103030;-78
2022/09/10 13:43:36;;;;;;;15.63;10.53;;;;;;;26.01;55.13;94759.25;6157287;28;103564;-78
2022/09/10 13:46:42;;;;;;;21.23;13.63;;;;;;;25.71;56.33;94744.50;6162761;28;103404;-78
2022/09/10 13:49:54;;;;;;;15.37;11.27;;;;;;;25.81;55.85;94754.78;6163229;28;103073;-77
2022/09/10 13:53:00;;;;;;;19.23;11.30;;;;;;;25.85;56.63;94745.72;6153279;28;103209;-77
2022/09/10 13:56:07;;;;;;;17.20;11.37;;;;;;;25.93;57.47;94738.69;6161795;28;104266;-78
2022/09/10 13:59:22;;;;;;;22.50;11.47;;;;;;;25.91;57.78;94744.41;6148111;28;103657;-78
2022/09/10 14:02:40;;;;;;;21.37;12.03;;;;;;;25.87;57.75;94750.75;6159114;28;103110;-77
2022/09/10 14:05:48;;;;;;;13.20;10.77;;;;;;;25.72;57.22;94754.13;6151377;28;103182;-77
2022/09/10 14:08:56;;;;;;;10.03;8.80;;;;;;;25.55;57.36;94757.81;6157179;28;103782;-77
2022/09/10 14:12:03;;;;;;;9.80;8.87;;;;;;;25.54;56.81;94749.00;6158335;28;103376;-78
2022/09/10 14:15:16;;;;;;;13.13;11.00;;;;;;;25.45;57.47;94736.81;6148396;28;103135;-76